createdAt,value
2023-01-09T00:00:55.789Z,0.70
2023-01-09T00:03:22.354Z,0.55
2023-01-09T00:05:48.729Z,0.40
2023-01-09T00:08:15.101Z,0.50
2023-01-09T00:10:41.651Z,0.90
2023-01-09T00:13:12.031Z,0.70
2023-01-09T00:15:39.404Z,0.50
2023-01-09T00:18:05.850Z,0.40
2023-01-09T00:20:32.176Z,0.80
2023-01-09T00:23:00.873Z,0.50
2023-01-09T00:25:27.378Z,0.60
2023-01-09T00:27:53.686Z,1.33
2023-01-09T00:30:20.228Z,0.68
2023-01-09T00:32:46.585Z,0.75
2023-01-09T00:35:16.050Z,1.35
2023-01-09T00:37:42.659Z,0.68
2023-01-09T00:40:09.957Z,1.02
2023-01-09T00:42:37.157Z,0.52
2023-01-09T00:45:09.385Z,0.80
2023-01-09T00:47:41.104Z,0.50
2023-01-09T00:50:13.576Z,0.77
2023-01-09T00:52:40.925Z,0.60
2023-01-09T00:55:08.295Z,1.30
2023-01-09T00:57:34.815Z,1.45
2023-01-09T01:00:01.497Z,0.68
2023-01-09T01:02:27.956Z,0.70
2023-01-09T01:04:54.350Z,0.95
2023-01-09T01:07:20.660Z,0.85
2023-01-09T01:09:46.990Z,0.73
2023-01-09T01:12:13.511Z,0.60
2023-01-09T01:14:40.991Z,0.60
2023-01-09T01:17:07.826Z,1.13
2023-01-09T01:19:35.380Z,0.88
2023-01-09T01:22:02.019Z,1.20
2023-01-09T01:24:28.690Z,0.85
2023-01-09T01:26:55.014Z,0.80
2023-01-09T01:29:21.361Z,0.75
2023-01-09T01:31:47.732Z,0.77
2023-01-09T01:34:14.078Z,1.27
2023-01-09T01:36:40.412Z,1.60
2023-01-09T01:39:06.729Z,1.20
2023-01-09T01:41:33.075Z,1.63
2023-01-09T01:44:05.789Z,1.48
2023-01-09T01:46:33.865Z,1.20
2023-01-09T01:49:16.534Z,2.20
2023-01-09T01:54:16.156Z,2.50
2023-01-09T01:56:46.518Z,1.88
2023-01-09T01:59:29.114Z,2.35
2023-01-09T02:04:24.631Z,2.45
2023-01-09T02:06:53.708Z,3.28
2023-01-09T02:09:20.707Z,2.30
2023-01-09T02:11:52.309Z,3.20
2023-01-09T02:14:22.681Z,3.63
2023-01-09T02:16:55.296Z,3.08
2023-01-09T02:19:40.595Z,3.22
2023-01-09T02:22:35.764Z,2.97
2023-01-09T02:25:41.772Z,3.50
2023-01-09T02:28:19.566Z,3.03
2023-01-09T02:30:51.713Z,2.90
2023-01-09T02:33:36.538Z,3.03
2023-01-09T02:36:11.688Z,2.92
2023-01-09T02:39:05.055Z,3.47
2023-01-09T02:41:38.210Z,2.88
2023-01-09T02:44:24.385Z,2.22
2023-01-09T02:47:08.598Z,3.05
2023-01-09T02:49:38.375Z,2.85
2023-01-09T02:52:26.863Z,2.60
2023-01-09T02:55:13.871Z,2.33
2023-01-09T02:57:54.003Z,2.33
2023-01-09T03:00:34.604Z,2.60
2023-01-09T03:03:21.509Z,3.00
2023-01-09T03:05:58.072Z,2.03
2023-01-09T03:08:31.235Z,2.72
2023-01-09T03:11:05.460Z,2.13
2023-01-09T03:13:54.869Z,2.80
2023-01-09T03:16:27.515Z,2.65
2023-01-09T03:18:56.246Z,2.53
2023-01-09T03:21:23.322Z,2.50
2023-01-09T03:23:51.135Z,2.58
2023-01-09T03:26:18.045Z,2.10
2023-01-09T03:28:44.626Z,2.22
2023-01-09T03:31:11.499Z,2.28
2023-01-09T03:33:38.056Z,2.05
2023-01-09T03:36:05.233Z,2.00
2023-01-09T03:38:31.779Z,1.80
2023-01-09T03:40:58.227Z,2.47
2023-01-09T03:43:25.045Z,2.00
2023-01-09T03:45:51.529Z,2.58
2023-01-09T03:48:17.958Z,2.42
2023-01-09T03:50:44.477Z,1.98
2023-01-09T03:53:10.954Z,1.80
2023-01-09T03:55:37.597Z,2.20
2023-01-09T03:58:04.025Z,2.00
2023-01-09T04:00:30.495Z,1.95
2023-01-09T04:02:56.865Z,2.80
2023-01-09T04:05:23.228Z,1.80
2023-01-09T04:07:49.529Z,2.45
2023-01-09T04:10:16.300Z,1.75
2023-01-09T04:12:42.604Z,1.90
2023-01-09T04:15:09.390Z,2.63
2023-01-09T04:17:35.750Z,1.67
2023-01-09T04:20:02.027Z,1.30
2023-01-09T04:22:29.516Z,2.00
2023-01-09T04:24:55.869Z,1.75
2023-01-09T04:27:22.245Z,1.77
2023-01-09T04:29:48.644Z,1.83
2023-01-09T04:32:15.094Z,1.17
2023-01-09T04:34:41.439Z,1.92
2023-01-09T04:37:07.856Z,1.13
2023-01-09T04:39:34.250Z,1.50
2023-01-09T04:42:00.606Z,2.08
2023-01-09T04:44:26.945Z,1.80
2023-01-09T04:46:54.445Z,1.75
2023-01-09T04:49:21.143Z,1.17
2023-01-09T04:51:47.697Z,0.93
2023-01-09T04:54:14.394Z,0.82
2023-01-09T04:56:40.937Z,1.63
2023-01-09T04:59:08.117Z,1.00
2023-01-09T05:01:35.404Z,1.33
2023-01-09T05:04:02.370Z,1.30
2023-01-09T05:06:28.804Z,1.05
2023-01-09T05:08:55.184Z,1.17
2023-01-09T05:11:21.613Z,1.48
2023-01-09T05:13:48.026Z,1.05
2023-01-09T05:16:14.861Z,1.40
2023-01-09T05:18:41.222Z,1.23
2023-01-09T05:21:07.566Z,0.82
2023-01-09T05:23:34.080Z,1.38
2023-01-09T05:26:00.573Z,0.95
2023-01-09T05:28:27.018Z,1.10
2023-01-09T05:30:53.375Z,1.00
2023-01-09T05:33:20.446Z,0.70
2023-01-09T05:35:46.892Z,1.27
2023-01-09T05:38:13.297Z,1.10
2023-01-09T05:40:40.518Z,1.38
2023-01-09T05:43:07.450Z,0.90
2023-01-09T05:45:34.084Z,1.20
2023-01-09T05:48:00.588Z,1.40
2023-01-09T05:50:26.926Z,0.95
2023-01-09T05:52:53.257Z,1.20
2023-01-09T05:55:20.324Z,0.73
2023-01-09T05:57:46.669Z,0.93
2023-01-09T06:00:13.873Z,1.20
2023-01-09T06:02:40.387Z,0.70
2023-01-09T06:05:07.608Z,2.03
2023-01-09T06:07:33.950Z,1.15
2023-01-09T06:10:00.254Z,1.20
2023-01-09T06:12:26.562Z,0.70
2023-01-09T06:14:52.845Z,0.95
2023-01-09T06:17:20.384Z,1.10
2023-01-09T06:19:46.731Z,1.27
2023-01-09T06:22:13.104Z,1.17
2023-01-09T06:24:39.481Z,1.50
2023-01-09T06:27:05.787Z,1.48
2023-01-09T06:29:32.174Z,1.42
2023-01-09T06:31:58.565Z,0.50
2023-01-09T06:34:25.279Z,2.22
2023-01-09T06:36:52.425Z,1.85
2023-01-09T06:39:20.009Z,0.73
2023-01-09T06:41:49.334Z,1.67
2023-01-09T06:44:15.767Z,1.45
2023-01-09T06:46:42.201Z,1.17
2023-01-09T06:49:10.055Z,2.00
2023-01-09T06:51:36.441Z,0.90
2023-01-09T06:54:05.152Z,1.40
2023-01-09T06:56:31.530Z,2.05
2023-01-09T06:58:57.962Z,1.42
2023-01-09T07:01:25.109Z,1.48
2023-01-09T07:03:51.571Z,2.75
2023-01-09T07:06:18.082Z,1.80
2023-01-09T07:08:45.029Z,1.10
2023-01-09T07:11:11.711Z,1.90
2023-01-09T07:13:38.139Z,1.00
2023-01-09T07:16:05.215Z,2.30
2023-01-09T07:18:31.710Z,1.77
2023-01-09T07:20:58.100Z,1.83
2023-01-09T07:23:24.405Z,2.40
2023-01-09T07:25:51.433Z,1.60
2023-01-09T07:28:17.942Z,1.35
2023-01-09T07:30:44.302Z,1.40
2023-01-09T07:33:10.658Z,1.50
2023-01-09T07:35:37.124Z,1.58
2023-01-09T07:38:03.608Z,1.92
2023-01-09T07:40:30.004Z,2.13
2023-01-09T07:42:56.416Z,2.50
2023-01-09T07:45:22.766Z,3.13
2023-01-09T07:47:49.188Z,3.20
2023-01-09T07:50:15.888Z,3.03
2023-01-09T07:52:44.567Z,2.72
2023-01-09T07:55:11.111Z,3.50
2023-01-09T07:57:40.212Z,3.33
2023-01-09T08:00:07.691Z,2.53
2023-01-09T08:02:34.150Z,1.70
2023-01-09T08:05:00.522Z,2.28
2023-01-09T08:07:26.931Z,1.70
2023-01-09T08:09:53.386Z,1.55
2023-01-09T08:12:22.822Z,0.77
2023-01-09T08:14:49.280Z,1.20
2023-01-09T08:17:15.713Z,1.48
2023-01-09T08:19:42.227Z,0.90
2023-01-09T08:22:10.271Z,0.70
2023-01-09T08:24:38.960Z,0.85
2023-01-09T08:27:05.471Z,0.65
2023-01-09T08:29:31.878Z,0.60
2023-01-09T08:31:58.319Z,0.80
2023-01-09T08:34:24.737Z,0.45
2023-01-09T08:36:52.187Z,0.88
2023-01-09T08:39:18.634Z,0.80
2023-01-09T08:41:45.057Z,1.50
2023-01-09T08:44:12.646Z,0.60
2023-01-09T08:46:39.240Z,1.20
2023-01-09T08:49:05.777Z,1.40
2023-01-09T08:51:32.293Z,1.60
2023-01-09T08:53:59.039Z,0.73
2023-01-09T08:56:25.615Z,0.88
2023-01-09T08:58:54.332Z,1.13
2023-01-09T09:01:21.132Z,1.30
2023-01-09T09:03:47.703Z,1.20
2023-01-09T09:06:14.283Z,1.63
2023-01-09T09:08:40.919Z,2.88
2023-01-09T09:11:07.653Z,1.30
2023-01-09T09:13:34.107Z,1.77
2023-01-09T09:16:02.879Z,1.77
2023-01-09T09:18:31.607Z,1.05
2023-01-09T09:20:59.083Z,1.50
2023-01-09T09:23:25.606Z,0.80
2023-01-09T09:25:52.156Z,1.38
2023-01-09T09:28:18.742Z,1.33
2023-01-09T09:30:45.359Z,1.20
2023-01-09T09:33:11.948Z,1.35
2023-01-09T09:35:38.518Z,1.95
2023-01-09T09:38:05.833Z,1.38
2023-01-09T09:40:51.027Z,1.38
2023-01-09T09:43:44.861Z,0.80
2023-01-09T09:46:28.992Z,0.73
2023-01-09T09:49:15.016Z,0.57
2023-01-09T09:52:17.077Z,0.50
2023-01-09T09:54:49.879Z,0.82
2023-01-09T09:57:21.879Z,0.95
2023-01-09T09:59:49.154Z,0.80
2023-01-09T10:02:45.876Z,1.23
2023-01-09T10:05:18.950Z,0.52
2023-01-09T10:07:49.540Z,1.15
2023-01-09T10:10:42.779Z,0.60
2023-01-09T10:13:16.368Z,1.00
2023-01-09T10:15:50.608Z,0.60
2023-01-09T10:18:23.103Z,1.00
2023-01-09T10:20:56.237Z,1.60
2023-01-09T10:23:41.380Z,1.45
2023-01-09T10:26:21.560Z,0.85
2023-01-09T10:29:32.623Z,1.00
2023-01-09T10:32:22.247Z,0.60
2023-01-09T10:35:10.278Z,0.63
2023-01-09T10:37:44.631Z,1.30
2023-01-09T10:40:29.475Z,0.70
2023-01-09T10:43:07.614Z,0.52
2023-01-09T10:45:56.178Z,0.65
2023-01-09T10:48:30.158Z,1.35
2023-01-09T10:50:56.843Z,1.08
2023-01-09T10:53:30.310Z,0.98
2023-01-09T10:56:03.204Z,0.40
2023-01-09T10:58:29.520Z,0.43
2023-01-09T11:00:56.291Z,0.60
2023-01-09T11:03:23.485Z,0.47
2023-01-09T11:05:58.510Z,0.52
2023-01-09T11:08:38.844Z,0.80
2023-01-09T11:11:05.407Z,0.40
2023-01-09T11:13:33.934Z,0.75
2023-01-09T11:16:16.652Z,0.70
2023-01-09T11:18:58.016Z,0.95
2023-01-09T11:21:37.194Z,0.47
2023-01-09T11:24:27.838Z,0.90
2023-01-09T11:27:14.078Z,0.90
2023-01-09T11:29:41.475Z,0.80
2023-01-09T11:32:21.853Z,0.90
2023-01-09T11:34:48.773Z,0.50
2023-01-09T11:37:30.476Z,0.95
2023-01-09T11:39:59.278Z,0.50
2023-01-09T11:42:27.997Z,1.48
2023-01-09T11:44:58.748Z,0.88
2023-01-09T11:47:39.299Z,1.17
2023-01-09T11:50:21.633Z,1.27
2023-01-09T11:53:07.342Z,1.27
2023-01-09T11:55:41.802Z,1.15
2023-01-09T11:58:17.911Z,0.90
2023-01-09T12:01:00.066Z,1.40
2023-01-09T12:04:00.780Z,1.00
2023-01-09T12:06:44.142Z,1.10
2023-01-09T12:09:24.256Z,0.90
2023-01-09T12:12:04.697Z,1.00
2023-01-09T12:14:48.579Z,1.00
2023-01-09T12:17:50.917Z,1.00
2023-01-09T12:20:41.278Z,0.95
2023-01-09T12:23:07.605Z,0.80
2023-01-09T12:25:42.000Z,1.10
2023-01-09T12:28:17.452Z,1.30
2023-01-09T12:31:07.229Z,0.80
2023-01-09T12:33:47.974Z,1.33
2023-01-09T12:36:25.769Z,1.20
2023-01-09T12:39:06.601Z,1.02
2023-01-09T12:41:48.423Z,0.63
2023-01-09T12:44:35.008Z,1.00
2023-01-09T12:47:27.029Z,1.58
2023-01-09T12:50:02.319Z,1.55
2023-01-09T12:52:34.574Z,1.70
2023-01-09T12:55:15.516Z,0.80
2023-01-09T12:57:50.523Z,0.75
2023-01-09T13:00:37.405Z,1.17
2023-01-09T13:03:15.664Z,1.15
2023-01-09T13:05:44.193Z,0.90
2023-01-09T13:08:30.866Z,1.27
2023-01-09T13:11:19.931Z,0.88
2023-01-09T13:14:10.664Z,1.20
2023-01-09T13:16:43.555Z,1.23
2023-01-09T13:19:31.368Z,1.02
2023-01-09T13:21:58.417Z,1.20
2023-01-09T13:24:30.265Z,1.08
2023-01-09T13:27:00.879Z,2.17
2023-01-09T13:32:25.242Z,1.20
2023-01-09T13:34:56.171Z,0.73
2023-01-09T13:37:26.911Z,1.02
2023-01-09T13:40:02.156Z,1.05
2023-01-09T13:42:29.405Z,1.02
2023-01-09T13:45:08.517Z,1.08
2023-01-09T13:47:35.027Z,1.02
2023-01-09T13:50:20.859Z,0.73
2023-01-09T13:52:47.385Z,1.05
2023-01-09T13:55:13.705Z,1.13
2023-01-09T13:58:02.949Z,1.40
2023-01-09T14:00:29.264Z,1.17
2023-01-09T14:02:57.730Z,1.02
2023-01-09T14:05:24.027Z,1.48
2023-01-09T14:07:52.422Z,1.17
2023-01-09T14:10:24.654Z,1.13
2023-01-09T14:12:54.732Z,1.58
2023-01-09T14:15:30.940Z,0.70
2023-01-09T14:18:02.803Z,1.50
2023-01-09T14:21:03.135Z,1.48
2023-01-09T14:26:20.301Z,0.80
2023-01-09T14:28:46.677Z,1.30
2023-01-09T14:31:31.695Z,1.27
2023-01-09T14:34:30.196Z,0.88
2023-01-09T14:37:01.286Z,1.02
2023-01-09T14:39:31.646Z,1.30
2023-01-09T14:42:01.495Z,1.65
2023-01-09T14:44:39.966Z,0.73
2023-01-09T14:47:25.496Z,1.67
2023-01-09T14:49:58.854Z,1.20
2023-01-09T14:52:33.065Z,1.88
2023-01-09T14:55:02.563Z,1.10
2023-01-09T14:57:31.681Z,1.20
2023-01-09T15:00:04.137Z,0.68
2023-01-09T15:02:34.678Z,2.35
2023-01-09T15:05:04.868Z,1.80
2023-01-09T15:07:34.129Z,1.90
2023-01-09T15:10:02.833Z,0.90
2023-01-09T15:12:31.265Z,3.72
2023-01-09T15:15:01.210Z,3.05
2023-01-09T15:17:30.995Z,2.35
2023-01-09T15:20:01.512Z,1.23
2023-01-09T15:22:31.417Z,5.03
2023-01-09T15:24:59.075Z,1.38
2023-01-09T15:27:25.823Z,1.13
2023-01-09T15:29:53.128Z,3.58
2023-01-09T15:32:29.646Z,2.00
2023-01-09T15:34:57.377Z,1.20
2023-01-09T15:37:32.842Z,1.30
2023-01-09T15:40:01.209Z,1.08
2023-01-09T15:42:31.078Z,1.08
2023-01-09T15:44:57.498Z,1.30
2023-01-09T15:47:24.751Z,3.70
2023-01-09T15:49:52.225Z,3.05
2023-01-09T15:52:20.040Z,3.30
2023-01-09T15:54:46.509Z,6.18
2023-01-09T15:57:32.509Z,3.00
2023-01-09T16:00:35.198Z,5.40
2023-01-09T16:03:10.013Z,5.65
2023-01-09T16:05:51.813Z,5.65
2023-01-09T16:08:23.555Z,18.58
2023-01-09T16:10:55.382Z,7.47
2023-01-09T16:13:25.073Z,1.95
2023-01-09T16:15:52.559Z,1.70
2023-01-09T16:18:22.690Z,1.08
2023-01-09T16:20:49.447Z,1.30
2023-01-09T16:23:31.610Z,1.10
2023-01-09T16:26:12.460Z,1.30
2023-01-09T16:28:40.799Z,1.50
2023-01-09T16:31:27.453Z,2.05
2023-01-09T16:34:05.968Z,2.90
2023-01-09T16:36:36.480Z,11.60
2023-01-09T16:39:03.870Z,3.67
2023-01-09T16:41:30.629Z,2.72
2023-01-09T16:43:59.156Z,1.45
2023-01-09T16:46:26.406Z,2.90
2023-01-09T16:48:54.357Z,2.50
2023-01-09T16:51:22.825Z,3.08
2023-01-09T16:53:49.919Z,1.88
2023-01-09T16:56:25.918Z,1.77
2023-01-09T16:58:52.657Z,1.38
2023-01-09T17:01:20.113Z,1.45
2023-01-09T17:03:46.626Z,1.50
2023-01-09T17:06:31.158Z,1.63
2023-01-09T17:08:58.289Z,1.20
2023-01-09T17:11:28.518Z,1.42
2023-01-09T17:13:54.925Z,0.98
2023-01-09T17:16:21.405Z,1.30
2023-01-09T17:18:47.823Z,1.27
2023-01-09T17:21:17.512Z,2.22
2023-01-09T17:23:46.856Z,1.40
2023-01-09T17:26:19.531Z,1.77
2023-01-09T17:28:48.926Z,0.93
2023-01-09T17:31:15.794Z,1.30
2023-01-09T17:33:42.817Z,1.00
2023-01-09T17:36:22.330Z,0.80
2023-01-09T17:38:48.753Z,0.73
2023-01-09T17:41:15.141Z,1.08
2023-01-09T17:43:46.734Z,1.10
2023-01-09T17:48:45.867Z,3.58
2023-01-09T17:51:12.396Z,4.60
2023-01-09T17:53:38.770Z,1.60
2023-01-09T17:56:05.504Z,2.08
2023-01-09T17:58:32.293Z,1.15
2023-01-09T18:01:02.193Z,1.50
2023-01-09T18:03:28.626Z,4.03
2023-01-09T18:05:55.023Z,1.67
2023-01-09T18:08:22.842Z,8.93
2023-01-09T18:10:49.598Z,2.80
2023-01-09T18:13:16.519Z,1.70
2023-01-09T18:15:44.981Z,1.75
2023-01-09T18:18:12.324Z,2.00
2023-01-09T18:20:42.517Z,1.38
2023-01-09T18:23:10.875Z,1.00
2023-01-09T18:25:44.006Z,1.30
2023-01-09T18:28:12.408Z,1.42
2023-01-09T18:30:38.973Z,0.98
2023-01-09T18:33:05.321Z,1.73
2023-01-09T18:35:34.683Z,5.93
2023-01-09T18:38:01.225Z,11.32
2023-01-09T18:40:27.599Z,8.80
2023-01-09T18:42:55.196Z,1.92
2023-01-09T18:45:24.453Z,5.38
2023-01-09T18:47:51.158Z,3.25
2023-01-09T18:50:21.966Z,1.88
2023-01-09T18:55:14.811Z,0.93
2023-01-09T18:57:41.307Z,1.60
2023-01-09T19:00:10.062Z,1.70
2023-01-09T19:02:36.585Z,1.30
2023-01-09T19:05:03.309Z,1.33
2023-01-09T19:07:29.909Z,1.20
2023-01-09T19:09:56.348Z,1.27
2023-01-09T19:12:23.037Z,1.52
2023-01-09T19:14:54.857Z,1.20
2023-01-09T19:17:21.664Z,1.25
2023-01-09T19:19:49.324Z,1.20
2023-01-09T19:22:15.983Z,3.90
2023-01-09T19:24:42.422Z,3.10
2023-01-09T19:27:11.005Z,3.67
2023-01-09T19:29:37.385Z,6.82
2023-01-09T19:32:03.886Z,8.07
2023-01-09T19:34:30.311Z,2.88
2023-01-09T19:36:56.736Z,13.57
2023-01-09T19:39:24.347Z,5.50
2023-01-09T19:41:51.327Z,2.45
2023-01-09T19:44:17.710Z,7.32
2023-01-09T19:46:44.453Z,3.28
2023-01-09T19:49:10.795Z,7.55
2023-01-09T19:51:37.126Z,3.55
2023-01-09T19:56:31.972Z,4.55
2023-01-09T19:59:00.722Z,1.60
2023-01-09T20:01:29.574Z,2.58
2023-01-09T20:03:58.054Z,3.40
2023-01-09T20:06:25.069Z,2.15
2023-01-09T20:08:56.467Z,4.18
2023-01-09T20:11:25.222Z,2.22
2023-01-09T20:13:51.803Z,4.10
2023-01-09T20:16:20.311Z,4.13
2023-01-09T20:18:47.272Z,5.22
2023-01-09T20:21:18.806Z,10.13
2023-01-09T20:23:46.249Z,10.20
2023-01-09T20:26:13.065Z,13.98
2023-01-09T20:28:39.478Z,13.93
2023-01-09T20:31:10.373Z,13.75
2023-01-09T20:33:37.072Z,19.85
2023-01-09T20:36:03.718Z,10.63
2023-01-09T20:38:30.442Z,4.70
2023-01-09T20:40:56.778Z,3.53
2023-01-09T20:43:24.297Z,16.90
2023-01-09T20:45:51.074Z,13.65
2023-01-09T20:48:17.668Z,9.57
2023-01-09T20:50:44.379Z,15.18
2023-01-09T20:53:13.582Z,9.55
2023-01-09T20:55:40.232Z,17.10
2023-01-09T20:58:06.666Z,4.50
2023-01-09T21:00:33.218Z,10.75
2023-01-09T21:02:59.607Z,3.75
2023-01-09T21:05:26.105Z,4.45
2023-01-09T21:07:53.218Z,2.30
2023-01-09T21:10:19.664Z,3.78
2023-01-09T21:12:46.354Z,7.25
2023-01-09T21:15:12.810Z,3.35
2023-01-09T21:17:40.216Z,3.42
2023-01-09T21:20:12.288Z,5.53
2023-01-09T21:22:38.900Z,4.95
2023-01-09T21:25:06.321Z,3.28
2023-01-09T21:27:32.801Z,2.97
2023-01-09T21:29:59.162Z,2.58
2023-01-09T21:32:25.516Z,1.67
2023-01-09T21:34:51.865Z,1.10
2023-01-09T21:37:18.241Z,3.40
2023-01-09T21:39:45.314Z,2.30
2023-01-09T21:42:11.842Z,5.30
2023-01-09T21:44:38.347Z,2.15
2023-01-09T21:47:04.818Z,2.15
2023-01-09T21:49:31.350Z,2.40
2023-01-09T21:51:58.057Z,3.20
2023-01-09T21:54:24.844Z,6.28
2023-01-09T21:56:52.257Z,5.55
2023-01-09T21:59:18.923Z,4.30
2023-01-09T22:01:48.639Z,1.58
2023-01-09T22:04:16.450Z,4.30
2023-01-09T22:06:43.334Z,4.35
2023-01-09T22:09:10.141Z,2.63
2023-01-09T22:11:38.360Z,6.18
2023-01-09T22:14:05.145Z,4.03
2023-01-09T22:16:31.684Z,3.13
2023-01-09T22:18:58.306Z,1.67
2023-01-09T22:21:25.715Z,2.90
2023-01-09T22:23:53.671Z,3.83
2023-01-09T22:26:22.891Z,2.42
2023-01-09T22:28:49.951Z,2.85
2023-01-09T22:31:18.747Z,3.47
2023-01-09T22:33:52.998Z,4.15
2023-01-09T22:36:20.020Z,3.42
2023-01-09T22:38:46.798Z,2.53
2023-01-09T22:41:13.497Z,2.85
2023-01-09T22:43:42.218Z,2.10
2023-01-09T22:46:11.561Z,1.92
2023-01-09T22:48:38.868Z,1.45
2023-01-09T22:51:08.357Z,1.30
2023-01-09T22:53:35.131Z,2.05
2023-01-09T22:56:03.953Z,1.73
2023-01-09T22:58:31.382Z,1.48
2023-01-09T23:00:58.239Z,1.70
2023-01-09T23:03:25.295Z,0.93
2023-01-09T23:06:06.194Z,1.60
2023-01-09T23:08:33.666Z,1.92
2023-01-09T23:11:01.044Z,2.30
2023-01-09T23:13:27.641Z,1.10
2023-01-09T23:15:54.413Z,1.67
2023-01-09T23:18:20.944Z,1.55
2023-01-09T23:20:55.729Z,1.50
2023-01-09T23:23:23.340Z,2.22
2023-01-09T23:25:54.851Z,1.30
2023-01-09T23:28:22.229Z,1.52
2023-01-09T23:30:49.096Z,1.40
2023-01-09T23:33:16.074Z,1.48
2023-01-09T23:35:43.249Z,1.23
2023-01-09T23:38:09.665Z,1.77
2023-01-09T23:40:36.548Z,1.60
2023-01-09T23:43:03.477Z,1.30
2023-01-09T23:45:29.874Z,1.17
2023-01-09T23:47:56.303Z,1.33
2023-01-09T23:50:22.652Z,1.42
2023-01-09T23:52:49.022Z,1.13
2023-01-09T23:55:15.543Z,1.25
2023-01-09T23:57:42.137Z,1.20
